createdAt,value
2018-03-02T00:00:40.434Z,-1.60
2018-03-02T00:03:09.681Z,-1.70
2018-03-02T00:05:39.009Z,-1.70
2018-03-02T00:08:08.286Z,-1.70
2018-03-02T00:10:37.558Z,-1.70
2018-03-02T00:13:06.826Z,-1.70
2018-03-02T00:15:36.855Z,-1.70
2018-03-02T00:18:06.615Z,-1.70
2018-03-02T00:20:35.920Z,-1.70
2018-03-02T00:23:05.419Z,-1.80
2018-03-02T00:25:34.656Z,-1.80
2018-03-02T00:28:03.933Z,-1.70
2018-03-02T00:30:33.254Z,-1.70
2018-03-02T00:33:02.512Z,-1.80
2018-03-02T00:35:31.811Z,-1.90
2018-03-02T00:38:01.122Z,-1.90
2018-03-02T00:40:30.452Z,-1.80
2018-03-02T00:42:59.706Z,-1.90
2018-03-02T00:45:28.998Z,-2.00
2018-03-02T00:47:58.258Z,-2.00
2018-03-02T00:50:27.549Z,-1.90
2018-03-02T00:52:57.735Z,-2.00
2018-03-02T00:55:26.993Z,-2.00
2018-03-02T00:57:57.076Z,-2.20
2018-03-02T01:00:26.402Z,-2.20
2018-03-02T01:02:55.704Z,-2.40
2018-03-02T01:05:25.039Z,-2.50
2018-03-02T01:07:55.074Z,-2.60
2018-03-02T01:10:24.351Z,-2.70
2018-03-02T01:12:53.617Z,-2.60
2018-03-02T01:15:22.902Z,-2.70
2018-03-02T01:17:52.175Z,-2.80
2018-03-02T01:20:21.483Z,-2.80
2018-03-02T01:22:51.498Z,-2.90
2018-03-02T01:25:20.774Z,-2.90
2018-03-02T01:27:50.045Z,-2.90
2018-03-02T01:30:19.330Z,-2.90
2018-03-02T01:32:48.587Z,-2.80
2018-03-02T01:35:18.070Z,-3.00
2018-03-02T01:37:48.102Z,-3.10
2018-03-02T01:40:17.374Z,-3.10
2018-03-02T01:42:46.694Z,-3.10
2018-03-02T01:45:15.973Z,-3.10
2018-03-02T01:47:45.314Z,-3.10
2018-03-02T01:50:14.608Z,-3.10
2018-03-02T01:52:44.021Z,-3.20
2018-03-02T01:55:13.306Z,-3.20
2018-03-02T01:57:43.344Z,-3.20
2018-03-02T02:00:12.627Z,-3.20
2018-03-02T02:02:41.908Z,-3.20
2018-03-02T02:05:11.229Z,-3.20
2018-03-02T02:07:40.610Z,-3.20
2018-03-02T02:10:09.887Z,-3.20
2018-03-02T02:12:39.214Z,-3.10
2018-03-02T02:15:08.539Z,-3.10
2018-03-02T02:17:38.583Z,-3.30
2018-03-02T02:20:07.992Z,-3.30
2018-03-02T02:22:37.253Z,-3.30
2018-03-02T02:25:07.322Z,-3.30
2018-03-02T02:27:36.617Z,-3.30
2018-03-02T02:30:06.622Z,-3.30
2018-03-02T02:32:35.903Z,-3.30
2018-03-02T02:35:05.965Z,-3.50
2018-03-02T02:37:35.319Z,-3.50
2018-03-02T02:40:04.577Z,-3.50
2018-03-02T02:42:33.899Z,-3.60
2018-03-02T02:45:03.278Z,-3.60
2018-03-02T02:47:33.253Z,-3.60
2018-03-02T02:50:02.544Z,-3.60
2018-03-02T02:52:33.341Z,-3.70
2018-03-02T02:55:02.640Z,-3.70
2018-03-02T02:57:31.907Z,-3.70
2018-03-02T03:00:01.175Z,-3.70
2018-03-02T03:02:30.468Z,-3.80
2018-03-02T03:04:59.750Z,-3.70
2018-03-02T03:07:29.118Z,-3.70
2018-03-02T03:09:58.409Z,-3.60
2018-03-02T03:12:27.695Z,-3.70
2018-03-02T03:14:57.690Z,-3.80
2018-03-02T03:17:27.294Z,-3.70
2018-03-02T03:19:56.536Z,-3.70
2018-03-02T03:22:25.840Z,-3.70
2018-03-02T03:24:55.112Z,-3.80
2018-03-02T03:27:24.389Z,-3.80
2018-03-02T03:29:53.690Z,-3.80
2018-03-02T03:32:22.944Z,-3.90
2018-03-02T03:34:52.282Z,-4.00
2018-03-02T03:37:21.585Z,-3.90
2018-03-02T03:39:50.825Z,-3.90
2018-03-02T03:42:20.232Z,-3.90
2018-03-02T03:44:50.277Z,-3.80
2018-03-02T03:47:19.583Z,-3.80
2018-03-02T03:49:48.838Z,-3.80
2018-03-02T03:52:18.138Z,-3.90
2018-03-02T03:54:47.449Z,-3.80
2018-03-02T03:57:16.734Z,-3.70
2018-03-02T03:59:46.025Z,-3.60
2018-03-02T04:02:15.300Z,-3.60
2018-03-02T04:04:44.576Z,-3.60
2018-03-02T04:07:14.610Z,-3.70
2018-03-02T04:09:43.906Z,-3.70
2018-03-02T04:12:13.176Z,-3.70
2018-03-02T04:14:43.206Z,-3.80
2018-03-02T04:17:13.277Z,-3.90
2018-03-02T04:19:42.541Z,-3.90
2018-03-02T04:22:11.842Z,-3.90
2018-03-02T04:24:41.110Z,-3.90
2018-03-02T04:27:10.581Z,-3.80
2018-03-02T04:29:39.843Z,-3.80
2018-03-02T04:32:09.183Z,-3.80
2018-03-02T04:34:39.126Z,-3.90
2018-03-02T04:37:08.442Z,-4.10
2018-03-02T04:39:37.723Z,-4.00
2018-03-02T04:42:06.978Z,-3.90
2018-03-02T04:44:36.252Z,-3.90
2018-03-02T04:47:06.282Z,-3.80
2018-03-02T04:49:35.578Z,-3.80
2018-03-02T04:52:04.862Z,-3.70
2018-03-02T04:54:34.279Z,-3.80
2018-03-02T04:57:04.333Z,-3.80
2018-03-02T04:59:33.639Z,-3.80
2018-03-02T05:02:03.602Z,-3.80
2018-03-02T05:04:33.088Z,-3.90
2018-03-02T05:07:02.382Z,-4.00
2018-03-02T05:09:31.651Z,-4.00
2018-03-02T05:12:01.219Z,-4.10
2018-03-02T05:14:31.288Z,-4.00
2018-03-02T05:17:00.550Z,-4.00
2018-03-02T05:19:29.860Z,-4.10
2018-03-02T05:21:59.121Z,-4.10
2018-03-02T05:24:28.502Z,-4.10
2018-03-02T05:26:57.782Z,-3.90
2018-03-02T05:29:27.090Z,-3.90
2018-03-02T05:31:56.391Z,-3.80
2018-03-02T05:34:26.323Z,-3.80
2018-03-02T05:36:55.596Z,-3.90
2018-03-02T05:39:25.016Z,-4.00
2018-03-02T05:41:54.317Z,-4.20
2018-03-02T05:44:23.597Z,-4.10
2018-03-02T05:46:53.647Z,-4.10
2018-03-02T05:49:22.924Z,-4.00
2018-03-02T05:51:52.214Z,-4.10
2018-03-02T05:54:21.515Z,-4.20
2018-03-02T05:56:50.808Z,-4.10
2018-03-02T05:59:20.917Z,-4.20
2018-03-02T06:01:50.215Z,-4.20
2018-03-02T06:04:19.625Z,-4.10
2018-03-02T06:06:49.694Z,-4.10
2018-03-02T06:09:19.025Z,-4.20
2018-03-02T06:11:48.452Z,-4.10
2018-03-02T06:14:17.736Z,-4.10
2018-03-02T06:16:47.292Z,-4.00
2018-03-02T06:19:17.337Z,-4.00
2018-03-02T06:21:46.615Z,-4.10
2018-03-02T06:24:15.907Z,-4.10
2018-03-02T06:26:45.731Z,-4.10
2018-03-02T06:29:15.016Z,-4.20
2018-03-02T06:31:45.106Z,-4.20
2018-03-02T06:34:14.454Z,-4.20
2018-03-02T06:36:43.857Z,-4.10
2018-03-02T06:42:20.875Z,-4.20
2018-03-02T06:44:50.194Z,-4.10
2018-03-02T06:47:19.829Z,-4.10
2018-03-02T06:49:49.102Z,-4.00
2018-03-02T06:52:18.404Z,-4.00
2018-03-02T06:54:47.671Z,-3.80
2018-03-02T06:57:17.743Z,-3.60
2018-03-02T06:59:47.321Z,-3.60
2018-03-02T07:02:16.695Z,-3.60
2018-03-02T07:04:45.994Z,-3.70
2018-03-02T07:07:15.369Z,-3.80
2018-03-02T07:09:44.756Z,-3.90
2018-03-02T07:12:14.076Z,-3.90
2018-03-02T07:14:43.542Z,-3.90
2018-03-02T07:17:12.811Z,-4.00
2018-03-02T07:19:42.932Z,-4.00
2018-03-02T07:22:12.987Z,-4.20
2018-03-02T07:24:42.274Z,-4.20
2018-03-02T07:27:11.597Z,-4.20
2018-03-02T07:29:40.914Z,-4.20
2018-03-02T07:32:10.208Z,-4.10
2018-03-02T07:34:39.470Z,-3.90
2018-03-02T07:37:08.759Z,-3.90
2018-03-02T07:39:38.017Z,-3.90
2018-03-02T07:42:07.496Z,-3.80
2018-03-02T07:44:36.745Z,-3.70
2018-03-02T07:47:06.044Z,-3.60
2018-03-02T07:49:35.307Z,-3.70
2018-03-02T07:52:04.583Z,-3.70
2018-03-02T07:54:34.102Z,-3.70
2018-03-02T07:57:03.440Z,-3.70
2018-03-02T07:59:32.813Z,-3.70
2018-03-02T08:02:02.284Z,-3.80
2018-03-02T08:04:32.327Z,-3.70
2018-03-02T08:07:01.578Z,-3.70
2018-03-02T08:09:30.896Z,-3.50
2018-03-02T08:12:00.164Z,-3.50
2018-03-02T08:14:29.435Z,-3.40
2018-03-02T08:16:58.749Z,-3.20
2018-03-02T08:19:28.782Z,-2.80
2018-03-02T08:21:58.827Z,-2.80
2018-03-02T08:24:28.136Z,-2.80
2018-03-02T08:26:57.408Z,-3.00
2018-03-02T08:29:26.680Z,-2.90
2018-03-02T08:31:55.964Z,-2.70
2018-03-02T08:34:25.265Z,-2.50
2018-03-02T08:36:54.555Z,-2.60
2018-03-02T08:39:23.833Z,-2.60
2018-03-02T08:41:53.133Z,-2.50
2018-03-02T08:44:23.049Z,-2.50
2018-03-02T08:46:52.358Z,-2.30
2018-03-02T08:49:21.813Z,-2.20
2018-03-02T08:51:52.027Z,-2.00
2018-03-02T08:54:21.362Z,-1.90
2018-03-02T08:56:50.616Z,-2.00
2018-03-02T08:59:19.915Z,-2.20
2018-03-02T09:01:49.294Z,-2.10
2018-03-02T09:04:18.581Z,-2.00
2018-03-02T09:06:47.874Z,-2.20
2018-03-02T09:09:17.221Z,-1.90
2018-03-02T09:11:46.541Z,-1.90
2018-03-02T09:14:15.875Z,-1.70
2018-03-02T09:16:45.357Z,-1.60
2018-03-02T09:19:14.633Z,-1.30
2018-03-02T09:21:43.989Z,-1.00
2018-03-02T09:24:13.281Z,-0.90
2018-03-02T09:26:42.788Z,-0.90
2018-03-02T09:29:12.037Z,-1.00
2018-03-02T09:31:41.520Z,-1.30
2018-03-02T09:34:10.793Z,-1.60
2018-03-02T09:36:40.640Z,-1.80
2018-03-02T09:39:09.927Z,-1.90
2018-03-02T09:41:39.962Z,-2.00
2018-03-02T09:44:09.253Z,-2.00
2018-03-02T09:46:38.545Z,-2.10
2018-03-02T09:49:07.809Z,-2.10
2018-03-02T09:51:37.122Z,-2.10
2018-03-02T09:54:06.389Z,-2.00
2018-03-02T09:56:35.785Z,-1.90
2018-03-02T09:59:05.133Z,-2.00
2018-03-02T10:01:34.404Z,-1.80
2018-03-02T10:04:03.699Z,-1.70
2018-03-02T10:06:33.712Z,-1.50
2018-03-02T10:09:03.739Z,-1.70
2018-03-02T10:11:33.082Z,-1.70
2018-03-02T10:14:02.282Z,-1.70
2018-03-02T10:16:31.647Z,-1.60
2018-03-02T10:19:00.907Z,-1.60
2018-03-02T10:21:30.205Z,-1.40
2018-03-02T10:23:59.606Z,-1.70
2018-03-02T10:26:29.706Z,-1.10
2018-03-02T10:28:58.999Z,-1.10
2018-03-02T10:31:28.327Z,-0.70
2018-03-02T10:33:57.586Z,-0.60
2018-03-02T10:36:27.104Z,-0.50
2018-03-02T10:38:56.407Z,-0.40
2018-03-02T10:41:25.678Z,-0.40
2018-03-02T10:43:54.970Z,-0.20
2018-03-02T10:46:33.424Z,-0.60
2018-03-02T10:49:02.929Z,-0.80
2018-03-02T10:51:32.393Z,-0.60
2018-03-02T10:54:01.724Z,-0.70
2018-03-02T10:56:30.965Z,-0.60
2018-03-02T10:59:00.304Z,-0.50
2018-03-02T11:01:29.595Z,-0.30
2018-03-02T11:04:01.209Z,0.00
2018-03-02T11:06:30.682Z,0.00
2018-03-02T11:09:00.154Z,-0.20
2018-03-02T11:11:29.447Z,-0.20
2018-03-02T11:13:58.716Z,-0.30
2018-03-02T11:16:28.789Z,0.10
2018-03-02T11:18:58.053Z,0.10
2018-03-02T11:21:27.394Z,0.10
2018-03-02T11:23:56.658Z,-0.10
2018-03-02T11:26:26.262Z,-0.10
2018-03-02T11:28:56.278Z,0.00
2018-03-02T11:31:25.542Z,0.00
2018-03-02T11:33:54.819Z,0.20
2018-03-02T11:36:24.107Z,0.20
2018-03-02T11:38:53.379Z,0.40
2018-03-02T11:41:23.409Z,0.90
2018-03-02T11:43:52.682Z,0.90
2018-03-02T11:46:21.955Z,1.30
2018-03-02T11:48:51.231Z,1.70
2018-03-02T11:51:20.519Z,1.80
2018-03-02T11:53:49.856Z,1.60
2018-03-02T11:56:19.125Z,1.90
2018-03-02T11:58:48.386Z,2.10
2018-03-02T12:01:17.651Z,2.30
2018-03-02T12:03:46.905Z,2.30
2018-03-02T12:06:16.191Z,2.10
2018-03-02T12:08:45.987Z,1.50
2018-03-02T12:11:15.306Z,1.50
2018-03-02T12:13:44.567Z,1.30
2018-03-02T12:16:13.899Z,1.10
2018-03-02T12:18:43.160Z,0.90
2018-03-02T12:21:12.572Z,0.80
2018-03-02T12:23:42.025Z,0.90
2018-03-02T12:26:11.272Z,1.10
2018-03-02T12:28:40.555Z,1.20
2018-03-02T12:31:10.833Z,1.10
2018-03-02T12:33:40.245Z,1.10
2018-03-02T12:36:09.956Z,1.00
2018-03-02T12:38:40.236Z,0.90
2018-03-02T12:41:10.255Z,0.80
2018-03-02T12:43:46.244Z,0.70
2018-03-02T12:46:15.780Z,0.50
2018-03-02T12:48:45.107Z,0.70
2018-03-02T12:51:14.682Z,0.80
2018-03-02T12:53:43.949Z,0.70
2018-03-02T12:56:14.057Z,0.50
2018-03-02T12:58:44.145Z,0.30
2018-03-02T13:01:14.033Z,0.30
2018-03-02T13:03:43.336Z,0.30
2018-03-02T13:06:12.581Z,0.60
2018-03-02T13:08:41.850Z,0.80
2018-03-02T13:11:11.358Z,0.90
2018-03-02T13:13:40.653Z,0.90
2018-03-02T13:16:12.454Z,1.10
2018-03-02T13:18:43.703Z,1.20
2018-03-02T13:21:13.004Z,1.30
2018-03-02T13:23:42.529Z,1.50
2018-03-02T13:26:23.542Z,1.60
2018-03-02T13:28:53.932Z,1.50
2018-03-02T13:31:24.019Z,1.50
2018-03-02T13:34:10.869Z,1.50
2018-03-02T13:36:40.127Z,1.60
2018-03-02T13:39:10.061Z,1.50
2018-03-02T13:41:58.696Z,1.70
2018-03-02T13:44:28.084Z,1.90
2018-03-02T13:46:57.342Z,2.10
2018-03-02T13:49:44.432Z,2.10
2018-03-02T13:52:15.749Z,2.20
2018-03-02T13:54:46.678Z,2.40
2018-03-02T13:57:35.210Z,2.50
2018-03-02T14:00:04.520Z,2.50
2018-03-02T14:05:41.822Z,2.40
2018-03-02T14:08:11.098Z,2.30
2018-03-02T14:10:40.348Z,2.20
2018-03-02T14:13:10.559Z,2.00
2018-03-02T14:15:39.863Z,2.00
2018-03-02T14:18:09.199Z,2.00
2018-03-02T14:20:38.472Z,2.20
2018-03-02T14:23:07.733Z,2.30
2018-03-02T14:25:38.549Z,2.50
2018-03-02T14:28:07.812Z,2.50
2018-03-02T14:30:37.080Z,2.40
2018-03-02T14:33:06.394Z,2.40
2018-03-02T14:35:35.809Z,2.40
2018-03-02T14:38:05.831Z,2.00
2018-03-02T14:40:35.131Z,1.90
2018-03-02T14:43:04.497Z,1.80
2018-03-02T14:45:33.778Z,1.50
2018-03-02T14:48:03.035Z,1.70
2018-03-02T14:50:33.071Z,1.90
2018-03-02T14:53:02.371Z,1.90
2018-03-02T14:55:31.643Z,1.90
2018-03-02T14:58:02.581Z,1.90
2018-03-02T15:00:31.827Z,1.90
2018-03-02T15:03:01.110Z,1.80
2018-03-02T15:05:31.158Z,2.00
2018-03-02T15:08:00.541Z,1.90
2018-03-02T15:10:29.806Z,1.80
2018-03-02T15:12:59.092Z,1.60
2018-03-02T15:15:28.349Z,1.50
2018-03-02T15:17:57.639Z,1.60
2018-03-02T15:20:26.920Z,1.70
2018-03-02T15:22:56.197Z,1.60
2018-03-02T15:25:25.466Z,1.60
2018-03-02T15:27:54.724Z,1.50
2018-03-02T15:30:24.766Z,1.20
2018-03-02T15:32:54.011Z,1.10
2018-03-02T15:35:23.309Z,1.20
2018-03-02T15:37:52.562Z,1.10
2018-03-02T15:40:22.610Z,1.20
2018-03-02T15:42:51.878Z,1.20
2018-03-02T15:45:21.153Z,1.10
2018-03-02T15:47:51.977Z,0.80
2018-03-02T15:50:21.266Z,0.70
2018-03-02T15:52:50.515Z,0.70
2018-03-02T15:55:19.797Z,0.80
2018-03-02T15:57:49.093Z,0.90
2018-03-02T16:00:18.360Z,0.90
2018-03-02T16:02:47.638Z,0.90
2018-03-02T16:05:16.904Z,0.90
2018-03-02T16:07:46.170Z,0.90
2018-03-02T16:10:15.457Z,0.80
2018-03-02T16:12:44.721Z,0.80
2018-03-02T16:15:14.800Z,0.90
2018-03-02T16:17:44.086Z,0.70
2018-03-02T16:20:13.374Z,0.70
2018-03-02T16:22:42.675Z,0.70
2018-03-02T16:25:11.959Z,0.70
2018-03-02T16:27:41.235Z,0.70
2018-03-02T16:30:10.561Z,0.70
2018-03-02T16:32:39.841Z,0.70
2018-03-02T16:35:09.085Z,0.70
2018-03-02T16:37:38.378Z,0.70
2018-03-02T16:40:07.633Z,0.70
2018-03-02T16:42:36.950Z,0.70
2018-03-02T16:45:06.479Z,0.50
2018-03-02T16:47:35.751Z,0.50
2018-03-02T16:50:05.042Z,0.50
2018-03-02T16:52:34.553Z,0.30
2018-03-02T16:55:03.894Z,0.30
2018-03-02T16:57:33.148Z,0.20
2018-03-02T17:00:02.458Z,0.20
2018-03-02T17:02:31.737Z,0.20
2018-03-02T17:05:01.067Z,0.20
2018-03-02T17:07:30.298Z,0.10
2018-03-02T17:09:59.585Z,0.10
2018-03-02T17:12:29.645Z,0.10
2018-03-02T17:14:58.906Z,0.10
2018-03-02T17:17:28.206Z,0.00
2018-03-02T17:19:57.617Z,0.10
2018-03-02T17:22:27.724Z,0.20
2018-03-02T17:24:57.766Z,0.20
2018-03-02T17:27:27.322Z,0.10
2018-03-02T17:29:56.604Z,0.10
2018-03-02T17:32:25.863Z,0.10
2018-03-02T17:34:55.282Z,0.00
2018-03-02T17:37:24.689Z,0.00
2018-03-02T17:39:54.073Z,0.00
2018-03-02T17:42:23.303Z,0.00
2018-03-02T17:44:52.586Z,0.00
2018-03-02T17:47:21.887Z,0.10
2018-03-02T17:49:51.152Z,0.20
2018-03-02T17:52:22.736Z,0.20
2018-03-02T17:54:52.013Z,0.20
2018-03-02T17:57:21.344Z,0.20
2018-03-02T17:59:50.631Z,0.20
2018-03-02T18:02:20.226Z,0.10
2018-03-02T18:04:50.409Z,0.10
2018-03-02T18:07:21.558Z,0.10
2018-03-02T18:09:51.408Z,0.10
2018-03-02T18:12:20.674Z,0.00
2018-03-02T18:14:49.990Z,0.00
2018-03-02T18:17:19.258Z,0.00
2018-03-02T18:19:48.558Z,0.00
2018-03-02T18:22:17.826Z,0.00
2018-03-02T18:24:47.270Z,0.10
2018-03-02T18:27:16.968Z,0.10
2018-03-02T18:29:47.010Z,0.10
2018-03-02T18:32:16.492Z,0.10
2018-03-02T18:34:45.824Z,0.10
2018-03-02T18:37:15.876Z,0.10
2018-03-02T18:39:45.207Z,-0.10
2018-03-02T18:42:14.510Z,0.00
2018-03-02T18:44:43.859Z,0.00
2018-03-02T18:47:13.131Z,0.00
2018-03-02T18:49:42.408Z,0.00
2018-03-02T18:52:11.727Z,0.00
2018-03-02T18:54:41.051Z,-0.10
2018-03-02T18:57:10.438Z,-0.10
2018-03-02T18:59:39.813Z,-0.10
2018-03-02T19:02:09.863Z,0.00
2018-03-02T19:04:42.185Z,0.00
2018-03-02T19:07:11.432Z,-0.10
2018-03-02T19:09:40.946Z,-0.20
2018-03-02T19:12:10.240Z,-0.20
2018-03-02T19:14:39.865Z,-0.30
2018-03-02T19:17:09.135Z,-0.20
2018-03-02T19:19:39.195Z,-0.20
2018-03-02T19:22:08.490Z,-0.30
2018-03-02T19:24:37.856Z,-0.20
2018-03-02T19:27:07.954Z,-0.20
2018-03-02T19:29:38.567Z,-0.20
2018-03-02T19:32:07.864Z,-0.20
2018-03-02T19:34:37.179Z,-0.20
2018-03-02T19:37:06.517Z,-0.20
2018-03-02T19:39:36.668Z,-0.20
2018-03-02T19:42:05.967Z,-0.30
2018-03-02T19:44:35.577Z,-0.40
2018-03-02T19:47:05.721Z,-0.50
2018-03-02T19:49:35.033Z,-0.50
2018-03-02T19:52:04.349Z,-0.60
2018-03-02T19:54:33.683Z,-0.60
2018-03-02T19:57:02.972Z,-0.60
2018-03-02T19:59:32.357Z,-0.60
2018-03-02T20:02:01.700Z,-0.80
2018-03-02T20:04:31.079Z,-0.90
2018-03-02T20:07:00.398Z,-0.90
2018-03-02T20:09:30.464Z,-1.00
2018-03-02T20:11:59.788Z,-1.10
2018-03-02T20:14:29.150Z,-1.20
2018-03-02T20:16:58.458Z,-1.30
2018-03-02T20:19:28.012Z,-1.30
2018-03-02T20:21:58.114Z,-1.40
2018-03-02T20:24:27.369Z,-1.40
2018-03-02T20:26:56.641Z,-1.30
2018-03-02T20:29:25.965Z,-1.40
2018-03-02T20:31:55.979Z,-1.40
2018-03-02T20:34:27.051Z,-1.30
2018-03-02T20:36:56.354Z,-1.30
2018-03-02T20:39:25.677Z,-1.30
2018-03-02T20:41:55.595Z,-1.30
2018-03-02T20:44:25.003Z,-1.30
2018-03-02T20:46:54.299Z,-1.30
2018-03-02T20:49:23.559Z,-1.20
2018-03-02T20:51:52.980Z,-1.10
2018-03-02T20:54:22.354Z,-1.10
2018-03-02T20:56:51.711Z,-1.00
2018-03-02T20:59:21.039Z,-0.90
2018-03-02T21:01:50.357Z,-0.90
2018-03-02T21:04:19.901Z,-0.90
2018-03-02T21:06:49.201Z,-0.90
2018-03-02T21:09:18.523Z,-0.80
2018-03-02T21:11:47.838Z,-0.80
2018-03-02T21:14:17.220Z,-0.80
2018-03-02T21:16:46.526Z,-0.80
2018-03-02T21:19:15.817Z,-0.80
2018-03-02T21:21:45.143Z,-0.80
2018-03-02T21:24:15.224Z,-0.70
2018-03-02T21:26:44.571Z,-0.80
2018-03-02T21:29:17.705Z,-0.80
2018-03-02T21:31:47.129Z,-0.80
2018-03-02T21:34:18.977Z,-0.80
2018-03-02T21:36:45.764Z,-0.80
2018-03-02T21:39:15.312Z,-0.80
2018-03-02T21:41:44.600Z,-0.80
2018-03-02T21:44:13.947Z,-0.90
2018-03-02T21:46:43.349Z,-0.90
2018-03-02T21:49:12.706Z,-0.90
2018-03-02T21:51:43.297Z,-0.90
2018-03-02T21:54:12.887Z,-0.90
2018-03-02T21:56:42.960Z,-0.90
2018-03-02T21:59:12.256Z,-0.90
2018-03-02T22:01:41.567Z,-0.90
2018-03-02T22:04:10.873Z,-0.90
2018-03-02T22:06:40.210Z,-0.80
2018-03-02T22:09:09.502Z,-0.80
2018-03-02T22:11:38.854Z,-0.80
2018-03-02T22:14:08.948Z,-0.80
2018-03-02T22:16:38.345Z,-0.80
2018-03-02T22:19:07.812Z,-0.80
2018-03-02T22:21:37.180Z,-0.80
2018-03-02T22:24:06.498Z,-0.70
2018-03-02T22:26:35.792Z,-0.70
2018-03-02T22:29:05.082Z,-0.70
2018-03-02T22:31:34.367Z,-0.60
2018-03-02T22:34:03.641Z,-0.60
2018-03-02T22:36:32.988Z,-0.60
2018-03-02T22:39:02.320Z,-0.60
2018-03-02T22:41:31.560Z,-0.60
2018-03-02T22:44:00.877Z,-0.60
2018-03-02T22:46:30.138Z,-0.50
2018-03-02T22:48:59.434Z,-0.50
2018-03-02T22:51:28.728Z,-0.50
2018-03-02T22:53:58.798Z,-0.50
2018-03-02T22:56:28.029Z,-0.50
2018-03-02T22:58:57.364Z,-0.50
2018-03-02T23:01:26.640Z,-0.50
2018-03-02T23:03:55.933Z,-0.50
2018-03-02T23:06:25.956Z,-0.50
2018-03-02T23:08:56.042Z,-0.50
2018-03-02T23:11:25.356Z,-0.60
2018-03-02T23:13:54.659Z,-0.60
2018-03-02T23:16:23.878Z,-0.60
2018-03-02T23:18:53.157Z,-0.50
2018-03-02T23:21:23.965Z,-0.50
2018-03-02T23:23:53.290Z,-0.50
2018-03-02T23:26:22.628Z,-0.40
2018-03-02T23:28:52.655Z,-0.40
2018-03-02T23:31:21.938Z,-0.40
2018-03-02T23:33:51.230Z,-0.40
2018-03-02T23:36:20.535Z,-0.40
2018-03-02T23:38:49.827Z,-0.50
2018-03-02T23:41:19.075Z,-0.50
2018-03-02T23:43:48.349Z,-0.60
2018-03-02T23:46:18.412Z,-0.80
2018-03-02T23:48:47.755Z,-0.80
2018-03-02T23:51:16.988Z,-0.70
2018-03-02T23:53:46.291Z,-0.70
2018-03-02T23:56:15.540Z,-0.70
2018-03-02T23:58:44.812Z,-0.70
